Time,TemperatureF,DewpointF,PressureIn,WindDirection,WindDirectionDegrees,WindSpeedMPH,WindSpeedGustMPH,Humidity,HourlyPrecipIn,Conditions,Clouds,dailyrainin,SolarRadiationWatts/m^2,SoftwareType,DateUTC
2013-03-07 00:22:00,-2.0,-6.0,-100.00,South,179,0.0,0.0,81,-99.99,,,0.00,0.000000,,2013-03-07 09:22:00,
2013-03-07 01:22:00,-4.0,-8.0,-100.00,ENE,61,0.0,0.0,81,0.00,,,0.00,0.000000,,2013-03-07 10:22:00,
2013-03-07 02:22:00,-5.0,-10.0,-100.00,SSW,193,0.0,0.0,80,-99.99,,,0.00,0.000000,,2013-03-07 11:22:00,
2013-03-07 02:33:00,-5.0,-10.0,-100.00,SSW,193,0.0,0.0,80,-99.99,,,0.00,0.000000,,2013-03-07 11:33:00,
2013-03-07 03:22:00,-6.0,-11.0,-100.00,South,179,0.0,0.0,79,-99.99,,,0.00,0.000000,,2013-03-07 12:22:00,
2013-03-07 04:22:00,-7.0,-12.0,-100.00,South,173,0.0,0.0,79,-99.99,,,0.00,0.000000,,2013-03-07 13:22:00,
2013-03-07 05:22:00,-7.0,-12.0,-100.00,South,188,0.0,0.0,78,-99.99,,,0.00,0.000000,,2013-03-07 14:22:00,
2013-03-07 06:22:00,-7.0,-12.0,-100.00,South,179,0.0,0.0,78,-99.99,,,0.00,0.000000,,2013-03-07 15:22:00,
2013-03-07 07:23:00,-6.0,-11.0,-100.00,South,184,0.0,0.0,78,-99.99,,,0.00,0.000000,,2013-03-07 16:23:00,
2013-03-07 07:32:00,-6.0,-11.0,-100.00,South,184,0.0,0.0,78,-99.99,,,0.00,0.000000,,2013-03-07 16:32:00,
2013-03-07 08:22:00,-1.0,-6.0,-100.00,SSW,209,0.0,0.0,78,-99.99,,,0.00,14.000000,,2013-03-07 17:22:00,
2013-03-07 09:21:00,7.0,2.0,-100.00,SSW,192,0.0,0.0,78,-99.99,,,0.00,69.000000,,2013-03-07 18:21:00,
2013-03-07 10:22:00,22.0,8.0,-100.00,NNE,12,0.0,4.0,53,-99.99,,,0.00,248.000000,,2013-03-07 19:22:00,
2013-03-07 10:34:00,22.0,8.0,-100.00,NNE,12,0.0,4.0,53,-99.99,,,0.00,248.000000,,2013-03-07 19:34:00,
2013-03-07 10:43:00,22.0,8.0,-100.00,NNE,12,0.0,4.0,53,-99.99,,,0.00,248.000000,,2013-03-07 19:43:00,
2013-03-07 10:52:00,22.0,8.0,-100.00,NNE,12,0.0,4.0,53,-99.99,,,0.00,248.000000,,2013-03-07 19:52:00,
2013-03-07 11:22:00,30.0,10.0,-100.00,NE,55,0.0,3.0,42,0.00,,,-99.99,317.000000,,2013-03-07 20:22:00,
2013-03-07 11:32:00,30.0,10.0,-100.00,NE,55,0.0,3.0,42,0.00,,,-99.99,317.000000,,2013-03-07 20:32:00,
2013-03-07 11:42:00,30.0,10.0,-100.00,NE,55,0.0,3.0,42,0.00,,,-99.99,317.000000,,2013-03-07 20:42:00,
2013-03-07 11:52:00,30.0,10.0,-100.00,NE,55,0.0,3.0,42,0.00,,,-99.99,317.000000,,2013-03-07 20:52:00,
2013-03-07 12:22:00,31.0,10.0,-100.00,NNE,26,0.0,3.0,40,0.00,,,0.00,212.000000,,2013-03-07 21:22:00,
2013-03-07 12:32:00,31.0,10.0,-100.00,NNE,26,0.0,3.0,40,0.00,,,0.00,212.000000,,2013-03-07 21:32:00,
2013-03-07 12:42:00,31.0,10.0,-100.00,NNE,26,0.0,3.0,40,0.00,,,0.00,212.000000,,2013-03-07 21:42:00,
2013-03-07 12:52:00,31.0,10.0,-100.00,NNE,26,0.0,3.0,40,0.00,,,0.00,212.000000,,2013-03-07 21:52:00,
2013-03-07 13:22:00,32.0,10.0,-100.00,NNE,17,1.0,4.0,39,0.00,,,0.00,238.000000,,2013-03-07 22:22:00,
2013-03-07 13:32:00,32.0,10.0,-100.00,NNE,17,1.0,4.0,39,0.00,,,0.00,238.000000,,2013-03-07 22:32:00,
2013-03-07 13:42:00,32.0,10.0,-100.00,NNE,17,1.0,4.0,39,0.00,,,0.00,238.000000,,2013-03-07 22:42:00,
2013-03-07 13:52:00,32.0,10.0,-100.00,NNE,17,1.0,4.0,39,0.00,,,0.00,238.000000,,2013-03-07 22:52:00,
2013-03-07 14:22:00,38.0,11.0,-100.00,North,5,0.0,4.0,32,0.00,,,0.00,309.000000,,2013-03-07 23:22:00,
2013-03-07 14:32:00,38.0,11.0,-100.00,North,5,0.0,4.0,32,0.00,,,0.00,309.000000,,2013-03-07 23:32:00,
2013-03-07 14:42:00,38.0,11.0,-100.00,North,5,0.0,4.0,32,0.00,,,0.00,309.000000,,2013-03-07 23:42:00,
2013-03-07 15:22:00,35.0,10.0,-100.00,NE,54,1.0,4.0,35,0.00,,,0.00,191.000000,,2013-03-08 00:22:00,
2013-03-07 15:33:00,35.0,10.0,-100.00,NE,54,1.0,4.0,35,0.00,,,0.00,191.000000,,2013-03-08 00:33:00,
2013-03-07 15:43:00,35.0,10.0,-100.00,NE,54,1.0,4.0,35,0.00,,,0.00,191.000000,,2013-03-08 00:43:00,
2013-03-07 15:52:00,35.0,10.0,-100.00,NE,54,1.0,4.0,35,0.00,,,0.00,191.000000,,2013-03-08 00:52:00,
2013-03-07 16:21:00,35.0,12.0,-100.00,NNE,16,1.0,3.0,38,0.00,,,0.00,126.000000,,2013-03-08 01:21:00,
2013-03-07 16:32:00,35.0,12.0,-100.00,NNE,16,1.0,3.0,38,0.00,,,0.00,126.000000,,2013-03-08 01:32:00,
2013-03-07 16:42:00,35.0,12.0,-100.00,NNE,16,1.0,3.0,38,0.00,,,0.00,126.000000,,2013-03-08 01:42:00,
2013-03-07 16:51:00,35.0,12.0,-100.00,NNE,16,1.0,3.0,38,0.00,,,0.00,126.000000,,2013-03-08 01:51:00,
2013-03-07 17:21:00,33.0,12.0,-100.00,NE,40,1.0,4.0,41,0.00,,,0.00,79.000000,,2013-03-08 02:21:00,
2013-03-07 17:31:00,33.0,12.0,-100.00,NE,40,1.0,4.0,41,0.00,,,0.00,79.000000,,2013-03-08 02:31:00,
2013-03-07 17:41:00,33.0,12.0,-100.00,NE,40,1.0,4.0,41,0.00,,,0.00,79.000000,,2013-03-08 02:41:00,
2013-03-07 17:52:00,33.0,12.0,-100.00,NE,40,1.0,4.0,41,0.00,,,0.00,79.000000,,2013-03-08 02:52:00,
2013-03-07 18:22:00,29.0,15.0,-100.00,NE,42,1.0,4.0,56,0.00,,,0.00,27.000000,,2013-03-08 03:22:00,
2013-03-07 18:32:00,29.0,15.0,-100.00,NE,42,1.0,4.0,56,0.00,,,0.00,27.000000,,2013-03-08 03:32:00,
2013-03-07 18:42:00,29.0,15.0,-100.00,NE,42,1.0,4.0,56,0.00,,,0.00,27.000000,,2013-03-08 03:42:00,
2013-03-07 18:52:00,29.0,15.0,-100.00,NE,42,1.0,4.0,56,0.00,,,0.00,27.000000,,2013-03-08 03:52:00,
2013-03-07 19:21:00,26.0,15.0,-100.00,SSW,197,1.0,3.0,62,0.00,,,0.00,5.000000,,2013-03-08 04:21:00,
2013-03-07 19:32:00,26.0,15.0,-100.00,SSW,197,1.0,3.0,62,0.00,,,0.00,5.000000,,2013-03-08 04:32:00,
2013-03-07 19:42:00,26.0,15.0,-100.00,SSW,197,1.0,3.0,62,0.00,,,0.00,5.000000,,2013-03-08 04:42:00,
2013-03-07 19:51:00,26.0,15.0,-100.00,SSW,197,1.0,3.0,62,0.00,,,0.00,5.000000,,2013-03-08 04:51:00,
2013-03-07 20:22:00,25.0,15.0,-100.00,SSE,149,0.0,3.0,65,0.00,,,0.00,0.000000,,2013-03-08 05:22:00,
2013-03-07 20:32:00,25.0,15.0,-100.00,SSE,149,0.0,3.0,65,0.00,,,0.00,0.000000,,2013-03-08 05:32:00,
2013-03-07 20:42:00,25.0,15.0,-100.00,SSE,149,0.0,3.0,65,0.00,,,0.00,0.000000,,2013-03-08 05:42:00,
2013-03-07 20:52:00,25.0,15.0,-100.00,SSE,149,0.0,3.0,65,0.00,,,0.00,0.000000,,2013-03-08 05:52:00,
2013-03-07 21:21:00,23.0,14.0,-100.00,SSW,203,1.0,2.0,68,0.00,,,0.00,0.000000,,2013-03-08 06:21:00,
2013-03-07 21:32:00,23.0,14.0,-100.00,SSW,203,1.0,2.0,68,0.00,,,0.00,0.000000,,2013-03-08 06:32:00,
2013-03-07 21:42:00,23.0,14.0,-100.00,SSW,203,1.0,2.0,68,0.00,,,0.00,0.000000,,2013-03-08 06:42:00,
2013-03-07 21:51:00,23.0,14.0,-100.00,SSW,203,1.0,2.0,68,0.00,,,0.00,0.000000,,2013-03-08 06:51:00,
2013-03-07 22:21:00,22.0,13.0,-100.00,West,275,0.0,4.0,69,0.00,,,0.00,0.000000,,2013-03-08 07:21:00,
2013-03-07 23:21:00,20.0,13.0,-100.00,SSE,152,0.0,3.0,73,-99.99,,,0.00,0.000000,,2013-03-08 08:21:00,